CheckWX is a tool to help pilots better visualize weather data.  It is not intended as a substitute for an official pre-flight weather briefing.

20:11:31 UTC

KCWV METAR
Claxton-Evans County Airport
Claxton, Georgia, USA
Current

17 mins ago

KCWV 231955Z AUTO 22004KT 10SM CLR 30/11 A3005 RMK AO2 T03000112
Observed
Apr-23 @ 19:55 UTC
Wind
  • 220° at 4 KTS
Visibility
10 SM
Flight Rules
VFR
Cloud Levels
  • Clear skies
Temperature
30°C / 86°F
Dewpoint
11°C / 52°F
Humidity
31%
Altimeter
30.05" Hg
Pressure
1017.62 hPa
Previous

37 mins ago

KCWV 231935Z AUTO 23005KT 10SM CLR 30/12 A3006 RMK AO2 T02980115
Observed
Apr-23 @ 19:35 UTC
Wind
  • 230° at 5 KTS
Visibility
10 SM
Flight Rules
VFR
Cloud Levels
  • Clear skies
Temperature
30°C / 86°F
Dewpoint
12°C / 54°F
Humidity
33%
Altimeter
30.06" Hg
Pressure
1017.92 hPa
Previous

57 mins ago

KCWV 231915Z AUTO 18003KT 10SM CLR 30/12 A3007 RMK AO2 T02970115
Observed
Apr-23 @ 19:15 UTC
Wind
  • 180° at 3 KTS
Visibility
10 SM
Flight Rules
VFR
Cloud Levels
  • Clear skies
Temperature
30°C / 86°F
Dewpoint
12°C / 54°F
Humidity
33%
Altimeter
30.07" Hg
Pressure
1018.32 hPa